Malaga, Spain

9:47 AM CEST on March 28, 2017 (GMT +0200)
Malaga

Weather History for LEMG - March, 2014

Change the Weather History Date:

Monday, March 17, 2014

  Actual Average Record
Temperature  
Mean Temperature 58 °F -  
Max Temperature 71 °F 67 °F 71 °F (2008)
Min Temperature 44 °F 50 °F 42 °F (1998)
Degree Days  
Heating Degree Days 8    
Growing Degree Days 8 (Base 50)    
Moisture  
Dew Point 40 °F    
Average Humidity 52    
Maximum Humidity 82    
Minimum Humidity 20    
Precipitation  
Precipitation 0.00 in 0.06 in - ()
Sea Level Pressure  
Sea Level Pressure 30.18 in    
Wind  
Wind Speed 5 mph ()    
Max Wind Speed 9 mph    
Max Gust Speed -    
Visibility 14.5 miles    
Events      
Averages and records for this station are not official NWS values.
T = Trace of Precipitation, MM = Missing Value Source: Averaged Metar Reports

Daily Weather History Graph

Daily Weather History Graph

Search for Another Location

Airport or City:

Trip Planner

Search our weather history database for the weather conditions in past years. The results will help you decide how hot, cold, wet, or windy it might be!

Date:

Astronomy

Mar. 17, 2014 Rise Set
Actual Time 7:26 AM CET 7:26 PM CET
Civil Twilight 7:00 AM CET 7:52 PM CET
Nautical Twilight 6:30 AM CET 8:22 PM CET
Astronomical Twilight 6:00 AM CET 8:53 PM CET
Moon 8:27 PM CET (3/17) 7:35 AM CET (3/17)
Length of Visible Light 12h 52m
Length of Day
12h 00m
Waxing Gibbous, 99% of the Moon is Illuminated
Mar 17
Waxing Gibbous
Mar 24
Last Quarter
Mar 30
New
Apr 7
First Quarter
Apr 15
Full

Hourly Weather History & Observations

Time (CET) Temp. Windchill Dew Point Humidity Pressure Visibility Wind Dir Wind Speed Gust Speed Precip Events Conditions
12:00 AM 54 °F - 45 °F 62% 30.24 in - West 5.8 mph - -  
12:00 AM 51.8 °F - 46.4 °F 82% 30.21 in - West 5.8 mph - N/A   Clear
12:30 AM 53.6 °F - 44.6 °F 72% 30.21 in - West 3.5 mph - N/A   Clear
1:00 AM 54 °F - 44 °F 60% 30.22 in 9 mi West 2.3 mph - -  
1:00 AM 51.8 °F - 44.6 °F 76% 30.21 in - West 2.3 mph - N/A   Clear
1:30 AM 48.2 °F - 42.8 °F 82% 30.21 in - NW 1.2 mph - N/A   Clear
2:00 AM 51 °F - 42 °F 61% 30.22 in - West 4.6 mph - -  
2:00 AM 48.2 °F - 41.0 °F 76% 30.21 in - WNW 4.6 mph - N/A   Clear
2:30 AM 48.2 °F - 41.0 °F 76% 30.18 in - West 6.9 mph - N/A   Clear
3:00 AM 51 °F - 40 °F 56% 30.20 in - West 6.9 mph - -  
3:00 AM 50.0 °F - 41.0 °F 71% 30.18 in - West 5.8 mph - N/A   Clear
3:30 AM 46.4 °F 43.5 °F 41.0 °F 81% 30.18 in - WNW 5.8 mph - N/A   Clear
4:00 AM 48 °F - 40 °F 64% 30.19 in 9 mi West 9.2 mph - -  
4:00 AM 46.4 °F 42.4 °F 39.2 °F 76% 30.18 in - WNW 8.1 mph - N/A   Clear
4:30 AM 46.4 °F 42.4 °F 39.2 °F 76% 30.15 in - WNW 8.1 mph - N/A   Clear
5:00 AM 46.4 °F 42.9 °F 39.2 °F 76% 30.15 in - West 6.9 mph - N/A   Clear
5:30 AM 46.4 °F 42.4 °F 39.2 °F 76% 30.15 in - West 8.1 mph - N/A   Clear
6:00 AM 47 °F - 38 °F 62% 30.18 in - West 6.9 mph - -  
6:00 AM 46.4 °F 42.9 °F 39.2 °F 76% 30.15 in - West 6.9 mph - N/A   Clear
6:30 AM 48.2 °F - 37.4 °F 66% 30.18 in - West 6.9 mph - N/A   Clear
7:00 AM 49 °F - 37 °F 52% 30.19 in 9 mi West 9.2 mph - -  
7:00 AM 48.2 °F - 37.4 °F 66% 30.18 in - West 8.1 mph - N/A   Clear
7:30 AM 44.6 °F 40.2 °F 37.4 °F 76% 30.18 in - WNW 8.1 mph - N/A   Clear
8:00 AM 47 °F - 38 °F 60% 30.21 in - West 8.1 mph - -  
8:00 AM 46.4 °F 42.9 °F 37.4 °F 71% 30.18 in - West 6.9 mph - N/A   Clear
8:30 AM 48.2 °F - 37.4 °F 66% 30.21 in - West 8.1 mph - N/A   Clear
9:00 AM 51.8 °F - 37.4 °F 58% 30.21 in - WNW 4.6 mph - N/A   Clear
9:30 AM 55.4 °F - 39.2 °F 54% 30.21 in - WNW 4.6 mph - N/A   Clear
10:00 AM 59 °F - 39 °F 35% 30.23 in 16 mi NW 2.3 mph - -  
10:00 AM 59.0 °F - 39.2 °F 48% 30.21 in - Variable 2.3 mph - N/A   Clear
10:30 AM 62.6 °F - 37.4 °F 39% 30.21 in - Variable 1.2 mph - N/A   Clear
11:00 AM 66 °F - 36 °F 22% 30.23 in - Calm Calm - -  
11:00 AM 64.4 °F - 37.4 °F 37% 30.21 in - Calm Calm - N/A   Clear
11:30 AM 66.2 °F - 39.2 °F 37% 30.21 in - ESE 3.5 mph - N/A   Clear
12:00 PM 69 °F - 38 °F 21% 30.22 in - ESE 5.8 mph - -  
12:00 PM 66.2 °F - 37.4 °F 35% 30.21 in - ESE 4.6 mph - N/A   Clear
12:30 PM 66.2 °F - 39.2 °F 37% 30.21 in - ESE 6.9 mph - N/A   Clear
1:00 PM 70 °F - 44 °F 28% 30.21 in 19 mi ESE 8.1 mph - -  
1:00 PM 66.2 °F - 42.8 °F 43% 30.18 in - ESE 6.9 mph - N/A   Clear
1:30 PM 66.2 °F - 42.8 °F 43% 30.18 in - ESE 8.1 mph - N/A   Clear
2:00 PM 71 °F - 42 °F 24% 30.19 in - ESE 9.2 mph - -  
2:00 PM 66.2 °F - 41.0 °F 40% 30.18 in - ESE 8.1 mph - N/A   Clear
2:30 PM 66.2 °F - 46.4 °F 49% 30.18 in - ESE 9.2 mph - N/A   Clear
3:00 PM 70 °F - 41 °F 23% 30.17 in - ESE 9.2 mph - -  
3:00 PM 66.2 °F - 39.2 °F 37% 30.15 in - ESE 8.1 mph - N/A   Clear
3:30 PM 66.2 °F - 37.4 °F 35% 30.15 in - ESE 8.1 mph - N/A   Clear
4:00 PM 71 °F - 39 °F 20% 30.16 in 19 mi ESE 6.9 mph - -  
4:00 PM 66.2 °F - 39.2 °F 37% 30.15 in - ESE 6.9 mph - N/A   Clear
4:30 PM 66.2 °F - 37.4 °F 35% 30.15 in - ESE 6.9 mph - N/A   Clear
5:00 PM 70 °F - 38 °F 20% 30.15 in - ESE 8.1 mph - -  
5:00 PM 66.2 °F - 39.2 °F 37% 30.15 in - ESE 6.9 mph - N/A   Clear
5:30 PM 64.4 °F - 35.6 °F 34% 30.15 in - ESE 8.1 mph - N/A   Clear
6:00 PM 68 °F - 37 °F 21% 30.15 in - SE 8.1 mph - -  
6:00 PM 64.4 °F - 37.4 °F 37% 30.15 in - SE 8.1 mph - N/A   Clear
6:30 PM 62.6 °F - 39.2 °F 42% 30.15 in - SE 5.8 mph - N/A   Clear
7:00 PM 65 °F - 47 °F 42% 30.17 in 19 mi East 6.9 mph - -   Clear
7:00 PM 62.6 °F - 42.8 °F 48% 30.15 in - ESE 5.8 mph - N/A   Clear
7:30 PM 59.0 °F - 50.0 °F 72% 30.15 in - SE 4.6 mph - N/A   Clear
8:00 PM 60 °F - 46 °F 50% 30.17 in - ESE 5.8 mph - -  
8:00 PM 59.0 °F - 42.8 °F 55% 30.15 in - SE 5.8 mph - N/A   Clear
8:30 PM 59.0 °F - 42.8 °F 55% 30.15 in - SE 4.6 mph - N/A   Clear
9:00 PM 59 °F - 42 °F 41% 30.20 in - ESE 4.6 mph - -  
9:00 PM 59.0 °F - 39.2 °F 48% 30.18 in - SE 3.5 mph - N/A   Clear
9:30 PM 57.2 °F - 39.2 °F 51% 30.18 in - Calm Calm - N/A   Clear
10:00 PM 56 °F - 40 °F 43% 30.20 in 16 mi WNW 3.5 mph - -  
10:00 PM 55.4 °F - 39.2 °F 54% 30.18 in - WNW 2.3 mph - N/A   Clear
10:30 PM 53.6 °F - 39.2 °F 58% 30.18 in - West 3.5 mph - N/A   Clear
11:00 PM 55 °F - 41 °F 48% 30.20 in - West 2.3 mph - -  
11:00 PM 55.4 °F - 41.0 °F 58% 30.18 in - West 2.3 mph - N/A   Clear
11:30 PM 51.8 °F - 39.2 °F 62% 30.18 in - West 6.9 mph - N/A   Clear